sensor_id;sensor_type;location;lat;lon;timestamp;pressure;altitude;pressure_sealevel;temperature;humidity
19831;BME280;10076;52.008;4.708;2024-01-30T00:00:30;102575.88;;;10.76;100.00
19831;BME280;10076;52.008;4.708;2024-01-30T00:02:55;102569.06;;;10.51;100.00
19831;BME280;10076;52.008;4.708;2024-01-30T00:05:21;102563.22;;;10.44;100.00
19831;BME280;10076;52.008;4.708;2024-01-30T00:07:46;102558.91;;;10.42;100.00
19831;BME280;10076;52.008;4.708;2024-01-30T00:10:11;102561.34;;;10.46;100.00
19831;BME280;10076;52.008;4.708;2024-01-30T00:12:36;102562.34;;;10.44;100.00
19831;BME280;10076;52.008;4.708;2024-01-30T00:15:02;102563.94;;;10.48;100.00
19831;BME280;10076;52.008;4.708;2024-01-30T00:17:29;102568.09;;;10.53;100.00
19831;BME280;10076;52.008;4.708;2024-01-30T00:19:54;102555.78;;;10.52;100.00
19831;BME280;10076;52.008;4.708;2024-01-30T00:22:20;102550.50;;;10.52;100.00
19831;BME280;10076;52.008;4.708;2024-01-30T00:24:45;102555.91;;;10.69;100.00
19831;BME280;10076;52.008;4.708;2024-01-30T00:27:10;102552.34;;;10.70;100.00
19831;BME280;10076;52.008;4.708;2024-01-30T00:29:35;102553.53;;;10.63;100.00
19831;BME280;10076;52.008;4.708;2024-01-30T00:32:01;102555.06;;;10.69;100.00
19831;BME280;10076;52.008;4.708;2024-01-30T00:34:26;102564.13;;;10.83;100.00
19831;BME280;10076;52.008;4.708;2024-01-30T00:36:51;102549.31;;;10.79;100.00
19831;BME280;10076;52.008;4.708;2024-01-30T00:39:17;102538.19;;;10.53;100.00
19831;BME280;10076;52.008;4.708;2024-01-30T00:41:44;102532.28;;;10.66;100.00
19831;BME280;10076;52.008;4.708;2024-01-30T00:44:09;102520.75;;;10.87;100.00
19831;BME280;10076;52.008;4.708;2024-01-30T00:46:35;102523.09;;;10.75;100.00
19831;BME280;10076;52.008;4.708;2024-01-30T00:49:00;102532.38;;;10.65;100.00
19831;BME280;10076;52.008;4.708;2024-01-30T00:51:25;102524.44;;;10.65;100.00
19831;BME280;10076;52.008;4.708;2024-01-30T00:53:51;102527.69;;;10.90;100.00
19831;BME280;10076;52.008;4.708;2024-01-30T00:56:16;102532.41;;;10.83;100.00
19831;BME280;10076;52.008;4.708;2024-01-30T00:58:43;102538.75;;;10.59;100.00
19831;BME280;10076;52.008;4.708;2024-01-30T01:01:08;102550.63;;;10.89;100.00
19831;BME280;10076;52.008;4.708;2024-01-30T01:03:34;102555.06;;;10.89;100.00
19831;BME280;10076;52.008;4.708;2024-01-30T01:05:59;102548.44;;;10.79;100.00
19831;BME280;10076;52.008;4.708;2024-01-30T01:08:25;102546.63;;;10.61;100.00
19831;BME280;10076;52.008;4.708;2024-01-30T01:10:50;102546.47;;;10.84;100.00
19831;BME280;10076;52.008;4.708;2024-01-30T01:13:15;102544.06;;;10.98;100.00
19831;BME280;10076;52.008;4.708;2024-01-30T01:15:41;102549.31;;;10.79;100.00
19831;BME280;10076;52.008;4.708;2024-01-30T01:18:06;102535.84;;;11.03;100.00
19831;BME280;10076;52.008;4.708;2024-01-30T01:20:31;102530.22;;;10.93;100.00
19831;BME280;10076;52.008;4.708;2024-01-30T01:22:57;102526.50;;;11.15;100.00
19831;BME280;10076;52.008;4.708;2024-01-30T01:25:22;102517.63;;;10.98;100.00
19831;BME280;10076;52.008;4.708;2024-01-30T01:27:47;102521.00;;;10.63;100.00
19831;BME280;10076;52.008;4.708;2024-01-30T01:30:17;102523.44;;;10.67;100.00
19831;BME280;10076;52.008;4.708;2024-01-30T01:32:48;102524.56;;;10.62;100.00
19831;BME280;10076;52.008;4.708;2024-01-30T01:35:23;102526.84;;;10.69;100.00
19831;BME280;10076;52.008;4.708;2024-01-30T01:37:52;102512.22;;;10.62;100.00
19831;BME280;10076;52.008;4.708;2024-01-30T01:40:22;102516.97;;;10.74;100.00
19831;BME280;10076;52.008;4.708;2024-01-30T01:42:49;102509.41;;;10.85;100.00
19831;BME280;10076;52.008;4.708;2024-01-30T01:45:15;102521.28;;;10.95;100.00
19831;BME280;10076;52.008;4.708;2024-01-30T01:47:41;102526.59;;;10.75;100.00
19831;BME280;10076;52.008;4.708;2024-01-30T01:50:07;102503.41;;;11.00;100.00
19831;BME280;10076;52.008;4.708;2024-01-30T01:52:32;102510.53;;;10.80;100.00
19831;BME280;10076;52.008;4.708;2024-01-30T01:54:58;102525.03;;;10.51;100.00
19831;BME280;10076;52.008;4.708;2024-01-30T01:57:24;102527.66;;;10.51;100.00
19831;BME280;10076;52.008;4.708;2024-01-30T01:59:49;102537.53;;;10.86;100.00
19831;BME280;10076;52.008;4.708;2024-01-30T02:02:17;102542.16;;;11.01;100.00
19831;BME280;10076;52.008;4.708;2024-01-30T02:04:45;102517.06;;;10.91;100.00
19831;BME280;10076;52.008;4.708;2024-01-30T02:07:10;102525.03;;;10.90;100.00
19831;BME280;10076;52.008;4.708;2024-01-30T02:09:35;102521.13;;;10.98;100.00
19831;BME280;10076;52.008;4.708;2024-01-30T02:12:01;102510.63;;;10.97;100.00
19831;BME280;10076;52.008;4.708;2024-01-30T02:14:26;102508.06;;;10.95;100.00
19831;BME280;10076;52.008;4.708;2024-01-30T02:16:51;102506.22;;;10.97;100.00
19831;BME280;10076;52.008;4.708;2024-01-30T02:19:17;102491.47;;;11.10;100.00
19831;BME280;10076;52.008;4.708;2024-01-30T02:21:42;102494.28;;;11.07;100.00
19831;BME280;10076;52.008;4.708;2024-01-30T02:24:08;102493.94;;;10.96;100.00
19831;BME280;10076;52.008;4.708;2024-01-30T02:26:33;102494.84;;;11.13;100.00
19831;BME280;10076;52.008;4.708;2024-01-30T02:28:58;102504.28;;;11.19;100.00
19831;BME280;10076;52.008;4.708;2024-01-30T02:31:25;102494.56;;;11.01;100.00
19831;BME280;10076;52.008;4.708;2024-01-30T02:33:50;102501.28;;;11.08;100.00
19831;BME280;10076;52.008;4.708;2024-01-30T02:36:16;102510.50;;;11.18;100.00
19831;BME280;10076;52.008;4.708;2024-01-30T02:38:41;102507.94;;;11.35;100.00
19831;BME280;10076;52.008;4.708;2024-01-30T02:41:06;102511.22;;;11.21;100.00
19831;BME280;10076;52.008;4.708;2024-01-30T02:43:32;102507.94;;;11.16;100.00
19831;BME280;10076;52.008;4.708;2024-01-30T02:45:57;102491.34;;;11.13;100.00
19831;BME280;10076;52.008;4.708;2024-01-30T02:48:24;102488.44;;;11.19;100.00
19831;BME280;10076;52.008;4.708;2024-01-30T02:50:50;102497.78;;;11.26;100.00
19831;BME280;10076;52.008;4.708;2024-01-30T02:53:15;102493.06;;;11.14;100.00
19831;BME280;10076;52.008;4.708;2024-01-30T02:55:40;102491.78;;;11.22;100.00
19831;BME280;10076;52.008;4.708;2024-01-30T02:58:06;102489.50;;;11.33;100.00
19831;BME280;10076;52.008;4.708;2024-01-30T03:00:31;102475.97;;;11.39;100.00
19831;BME280;10076;52.008;4.708;2024-01-30T03:02:57;102482.34;;;11.17;100.00
19831;BME280;10076;52.008;4.708;2024-01-30T03:05:22;102481.28;;;11.39;100.00
19831;BME280;10076;52.008;4.708;2024-01-30T03:07:47;102472.34;;;11.05;100.00
19831;BME280;10076;52.008;4.708;2024-01-30T03:10:13;102463.66;;;11.03;100.00
19831;BME280;10076;52.008;4.708;2024-01-30T03:12:38;102467.56;;;11.13;100.00
19831;BME280;10076;52.008;4.708;2024-01-30T03:15:03;102456.75;;;10.99;100.00
19831;BME280;10076;52.008;4.708;2024-01-30T03:17:29;102462.63;;;11.24;100.00
19831;BME280;10076;52.008;4.708;2024-01-30T03:19:54;102466.50;;;10.99;100.00
19831;BME280;10076;52.008;4.708;2024-01-30T03:22:19;102468.78;;;11.06;100.00
19831;BME280;10076;52.008;4.708;2024-01-30T03:24:45;102469.00;;;11.20;100.00
19831;BME280;10076;52.008;4.708;2024-01-30T03:27:10;102460.88;;;11.41;100.00
19831;BME280;10076;52.008;4.708;2024-01-30T03:29:35;102461.84;;;11.03;100.00
19831;BME280;10076;52.008;4.708;2024-01-30T03:32:01;102463.94;;;10.97;100.00
19831;BME280;10076;52.008;4.708;2024-01-30T03:34:26;102463.47;;;11.06;100.00
19831;BME280;10076;52.008;4.708;2024-01-30T03:36:51;102477.41;;;11.28;100.00
19831;BME280;10076;52.008;4.708;2024-01-30T03:39:17;102469.69;;;11.05;100.00
19831;BME280;10076;52.008;4.708;2024-01-30T03:41:42;102468.63;;;10.91;100.00
19831;BME280;10076;52.008;4.708;2024-01-30T03:44:08;102466.97;;;10.88;100.00
19831;BME280;10076;52.008;4.708;2024-01-30T03:46:33;102476.50;;;11.10;100.00
19831;BME280;10076;52.008;4.708;2024-01-30T03:48:59;102469.34;;;11.31;100.00
19831;BME280;10076;52.008;4.708;2024-01-30T03:51:24;102471.81;;;11.34;100.00
19831;BME280;10076;52.008;4.708;2024-01-30T03:53:49;102461.81;;;11.59;100.00
19831;BME280;10076;52.008;4.708;2024-01-30T03:56:15;102463.47;;;11.24;100.00
19831;BME280;10076;52.008;4.708;2024-01-30T03:58:40;102465.03;;;11.47;100.00
19831;BME280;10076;52.008;4.708;2024-01-30T04:01:06;102468.75;;;11.24;100.00
19831;BME280;10076;52.008;4.708;2024-01-30T04:03:31;102462.56;;;10.89;100.00
19831;BME280;10076;52.008;4.708;2024-01-30T04:05:56;102469.50;;;11.09;100.00
19831;BME280;10076;52.008;4.708;2024-01-30T04:08:22;102456.63;;;11.02;100.00
19831;BME280;10076;52.008;4.708;2024-01-30T04:10:47;102463.91;;;11.15;100.00
19831;BME280;10076;52.008;4.708;2024-01-30T04:13:13;102453.59;;;11.46;100.00
19831;BME280;10076;52.008;4.708;2024-01-30T04:15:39;102449.41;;;11.24;100.00
19831;BME280;10076;52.008;4.708;2024-01-30T04:18:04;102453.41;;;11.14;100.00
19831;BME280;10076;52.008;4.708;2024-01-30T04:20:30;102452.75;;;11.27;100.00
19831;BME280;10076;52.008;4.708;2024-01-30T04:22:55;102455.56;;;11.06;100.00
19831;BME280;10076;52.008;4.708;2024-01-30T04:25:20;102446.41;;;11.13;100.00
19831;BME280;10076;52.008;4.708;2024-01-30T04:27:46;102452.47;;;10.97;100.00
19831;BME280;10076;52.008;4.708;2024-01-30T04:30:11;102449.34;;;11.07;100.00
19831;BME280;10076;52.008;4.708;2024-01-30T04:32:36;102444.19;;;11.04;100.00
19831;BME280;10076;52.008;4.708;2024-01-30T04:35:02;102450.78;;;11.14;100.00
19831;BME280;10076;52.008;4.708;2024-01-30T04:37:28;102439.75;;;11.23;100.00
19831;BME280;10076;52.008;4.708;2024-01-30T04:39:53;102437.56;;;11.49;100.00
19831;BME280;10076;52.008;4.708;2024-01-30T04:42:19;102439.66;;;11.43;100.00
19831;BME280;10076;52.008;4.708;2024-01-30T04:44:44;102435.13;;;11.45;100.00
19831;BME280;10076;52.008;4.708;2024-01-30T04:47:10;102427.81;;;11.50;100.00
19831;BME280;10076;52.008;4.708;2024-01-30T04:49:38;102432.44;;;11.46;100.00
19831;BME280;10076;52.008;4.708;2024-01-30T04:52:05;102434.03;;;11.67;100.00
19831;BME280;10076;52.008;4.708;2024-01-30T04:54:31;102427.81;;;11.50;100.00
19831;BME280;10076;52.008;4.708;2024-01-30T04:56:56;102432.88;;;11.37;100.00
19831;BME280;10076;52.008;4.708;2024-01-30T04:59:21;102431.84;;;11.40;100.00
19831;BME280;10076;52.008;4.708;2024-01-30T05:01:46;102432.16;;;11.34;100.00
19831;BME280;10076;52.008;4.708;2024-01-30T05:04:12;102429.69;;;11.31;100.00
19831;BME280;10076;52.008;4.708;2024-01-30T05:06:37;102433.28;;;11.11;100.00
19831;BME280;10076;52.008;4.708;2024-01-30T05:09:02;102432.16;;;11.34;100.00
19831;BME280;10076;52.008;4.708;2024-01-30T05:11:29;102432.91;;;11.19;100.00
19831;BME280;10076;52.008;4.708;2024-01-30T05:13:55;102428.97;;;11.27;100.00
19831;BME280;10076;52.008;4.708;2024-01-30T05:16:20;102431.94;;;11.38;100.00
19831;BME280;10076;52.008;4.708;2024-01-30T05:18:45;102423.06;;;11.39;100.00
19831;BME280;10076;52.008;4.708;2024-01-30T05:21:11;102427.19;;;11.09;100.00
19831;BME280;10076;52.008;4.708;2024-01-30T05:23:36;102435.34;;;11.23;100.00
19831;BME280;10076;52.008;4.708;2024-01-30T05:26:02;102432.88;;;11.37;100.00
19831;BME280;10076;52.008;4.708;2024-01-30T05:28:29;102425.06;;;11.17;100.00
19831;BME280;10076;52.008;4.708;2024-01-30T05:30:54;102437.25;;;11.01;100.00
19831;BME280;10076;52.008;4.708;2024-01-30T05:33:20;102429.03;;;11.26;100.00
19831;BME280;10076;52.008;4.708;2024-01-30T05:35:45;102431.84;;;11.40;100.00
19831;BME280;10076;52.008;4.708;2024-01-30T05:38:11;102433.75;;;11.19;100.00
19831;BME280;10076;52.008;4.708;2024-01-30T05:40:36;102425.84;;;11.36;100.00
19831;BME280;10076;52.008;4.708;2024-01-30T05:43:02;102430.72;;;11.27;100.00
19831;BME280;10076;52.008;4.708;2024-01-30T05:45:27;102425.44;;;11.27;100.00
19831;BME280;10076;52.008;4.708;2024-01-30T05:47:53;102435.47;;;11.20;100.00
19831;BME280;10076;52.008;4.708;2024-01-30T05:50:19;102435.09;;;11.28;100.00
19831;BME280;10076;52.008;4.708;2024-01-30T05:52:44;102434.97;;;11.31;100.00
19831;BME280;10076;52.008;4.708;2024-01-30T05:55:10;102443.03;;;11.28;100.00
19831;BME280;10076;52.008;4.708;2024-01-30T05:57:37;102436.28;;;11.58;100.00
19831;BME280;10076;52.008;4.708;2024-01-30T06:00:03;102436.19;;;11.59;100.00
19831;BME280;10076;52.008;4.708;2024-01-30T06:02:28;102442.13;;;11.64;100.00
19831;BME280;10076;52.008;4.708;2024-01-30T06:04:54;102439.94;;;11.55;100.00
19831;BME280;10076;52.008;4.708;2024-01-30T06:07:19;102444.94;;;11.43;100.00
19831;BME280;10076;52.008;4.708;2024-01-30T06:09:44;102441.09;;;11.31;100.00
19831;BME280;10076;52.008;4.708;2024-01-30T06:12:11;102452.16;;;11.58;100.00
19831;BME280;10076;52.008;4.708;2024-01-30T06:14:37;102453.41;;;11.68;100.00
19831;BME280;10076;52.008;4.708;2024-01-30T06:17:03;102449.84;;;11.69;100.00
19831;BME280;10076;52.008;4.708;2024-01-30T06:19:28;102454.59;;;11.44;100.00
19831;BME280;10076;52.008;4.708;2024-01-30T06:21:53;102450.00;;;11.47;100.00
19831;BME280;10076;52.008;4.708;2024-01-30T06:24:18;102451.88;;;11.45;100.00
19831;BME280;10076;52.008;4.708;2024-01-30T06:26:44;102452.72;;;11.46;100.00
19831;BME280;10076;52.008;4.708;2024-01-30T06:29:09;102455.28;;;11.47;100.00
19831;BME280;10076;52.008;4.708;2024-01-30T06:31:42;102449.69;;;11.72;100.00
19831;BME280;10076;52.008;4.708;2024-01-30T06:34:08;102453.97;;;11.74;100.00
19831;BME280;10076;52.008;4.708;2024-01-30T06:36:34;102447.75;;;11.58;100.00
19831;BME280;10076;52.008;4.708;2024-01-30T06:38:59;102451.44;;;11.54;100.00
19831;BME280;10076;52.008;4.708;2024-01-30T06:41:24;102453.88;;;11.59;100.00
19831;BME280;10076;52.008;4.708;2024-01-30T06:43:50;102449.06;;;11.67;100.00
19831;BME280;10076;52.008;4.708;2024-01-30T06:46:15;102445.13;;;11.92;100.00
19831;BME280;10076;52.008;4.708;2024-01-30T06:48:40;102446.88;;;11.74;100.00
19831;BME280;10076;52.008;4.708;2024-01-30T06:51:06;102458.47;;;11.55;100.00
19831;BME280;10076;52.008;4.708;2024-01-30T06:53:31;102455.22;;;11.49;100.00
19831;BME280;10076;52.008;4.708;2024-01-30T06:55:57;102450.00;;;11.66;100.00
19831;BME280;10076;52.008;4.708;2024-01-30T06:58:22;102449.13;;;11.65;100.00
19831;BME280;10076;52.008;4.708;2024-01-30T07:00:47;102452.97;;;11.76;100.00
19831;BME280;10076;52.008;4.708;2024-01-30T07:03:13;102459.38;;;11.89;100.00
19831;BME280;10076;52.008;4.708;2024-01-30T07:05:38;102457.75;;;11.87;100.00
19831;BME280;10076;52.008;4.708;2024-01-30T07:08:04;102464.19;;;11.81;100.00
19831;BME280;10076;52.008;4.708;2024-01-30T07:10:29;102465.91;;;11.99;100.00
19831;BME280;10076;52.008;4.708;2024-01-30T07:12:56;102469.03;;;12.07;100.00
19831;BME280;10076;52.008;4.708;2024-01-30T07:15:21;102470.97;;;12.21;100.00
19831;BME280;10076;52.008;4.708;2024-01-30T07:17:47;102470.59;;;11.94;100.00
19831;BME280;10076;52.008;4.708;2024-01-30T07:20:12;102467.00;;;11.95;100.00
19831;BME280;10076;52.008;4.708;2024-01-30T07:22:38;102478.53;;;11.94;100.00
19831;BME280;10076;52.008;4.708;2024-01-30T07:25:04;102477.91;;;12.06;100.00
19831;BME280;10076;52.008;4.708;2024-01-30T07:27:29;102485.38;;;11.98;100.00
19831;BME280;10076;52.008;4.708;2024-01-30T07:29:54;102484.25;;;11.85;100.00
19831;BME280;10076;52.008;4.708;2024-01-30T07:32:20;102489.34;;;12.07;100.00
19831;BME280;10076;52.008;4.708;2024-01-30T07:34:45;102493.47;;;12.29;100.00
19831;BME280;10076;52.008;4.708;2024-01-30T07:37:10;102490.97;;;12.09;100.00
19831;BME280;10076;52.008;4.708;2024-01-30T07:39:38;102497.16;;;12.10;100.00
19831;BME280;10076;52.008;4.708;2024-01-30T07:42:03;102506.09;;;12.07;100.00
19831;BME280;10076;52.008;4.708;2024-01-30T07:44:28;102495.75;;;12.20;100.00
19831;BME280;10076;52.008;4.708;2024-01-30T07:46:54;102501.25;;;12.15;100.00
19831;BME280;10076;52.008;4.708;2024-01-30T07:49:20;102499.53;;;11.97;100.00
19831;BME280;10076;52.008;4.708;2024-01-30T07:51:45;102497.59;;;12.18;100.00
19831;BME280;10076;52.008;4.708;2024-01-30T07:54:13;102504.69;;;12.17;100.00
19831;BME280;10076;52.008;4.708;2024-01-30T07:56:39;102508.59;;;12.10;100.00
19831;BME280;10076;52.008;4.708;2024-01-30T07:59:04;102500.47;;;12.13;100.00
19831;BME280;10076;52.008;4.708;2024-01-30T08:01:29;102507.16;;;12.37;100.00
19831;BME280;10076;52.008;4.708;2024-01-30T08:03:55;102502.28;;;12.30;100.00
19831;BME280;10076;52.008;4.708;2024-01-30T08:06:20;102509.44;;;12.28;100.00
19831;BME280;10076;52.008;4.708;2024-01-30T08:08:45;102507.88;;;12.24;100.00
19831;BME280;10076;52.008;4.708;2024-01-30T08:11:12;102516.31;;;12.32;100.00
19831;BME280;10076;52.008;4.708;2024-01-30T08:13:37;102520.88;;;12.45;100.00
19831;BME280;10076;52.008;4.708;2024-01-30T08:16:02;102519.47;;;12.38;100.00
19831;BME280;10076;52.008;4.708;2024-01-30T08:18:28;102526.81;;;12.33;100.00
19831;BME280;10076;52.008;4.708;2024-01-30T08:20:53;102523.31;;;12.33;100.00
19831;BME280;10076;52.008;4.708;2024-01-30T08:23:18;102536.00;;;12.43;100.00
19831;BME280;10076;52.008;4.708;2024-01-30T08:25:44;102525.88;;;12.34;100.00
19831;BME280;10076;52.008;4.708;2024-01-30T08:28:09;102533.50;;;12.57;100.00
19831;BME280;10076;52.008;4.708;2024-01-30T08:30:34;102535.94;;;12.44;100.00
19831;BME280;10076;52.008;4.708;2024-01-30T08:33:00;102536.16;;;12.57;100.00
19831;BME280;10076;52.008;4.708;2024-01-30T08:35:26;102532.00;;;12.68;100.00
19831;BME280;10076;52.008;4.708;2024-01-30T08:37:51;102536.00;;;12.43;100.00
19831;BME280;10076;52.008;4.708;2024-01-30T08:40:16;102537.63;;;12.45;100.00
19831;BME280;10076;52.008;4.708;2024-01-30T08:42:42;102537.81;;;12.42;100.00
19831;BME280;10076;52.008;4.708;2024-01-30T08:45:08;102540.28;;;12.45;100.00
19831;BME280;10076;52.008;4.708;2024-01-30T08:47:34;102541.13;;;12.63;100.00
19831;BME280;10076;52.008;4.708;2024-01-30T08:49:59;102542.38;;;12.56;100.00
19831;BME280;10076;52.008;4.708;2024-01-30T08:52:25;102538.19;;;12.35;100.00
19831;BME280;10076;52.008;4.708;2024-01-30T08:54:50;102543.09;;;12.59;100.00
19831;BME280;10076;52.008;4.708;2024-01-30T08:57:15;102542.00;;;12.46;100.00
19831;BME280;10076;52.008;4.708;2024-01-30T08:59:40;102541.47;;;12.40;100.00
19831;BME280;10076;52.008;4.708;2024-01-30T09:02:06;102549.72;;;12.51;100.00
19831;BME280;10076;52.008;4.708;2024-01-30T09:04:31;102538.50;;;12.63;100.00
19831;BME280;10076;52.008;4.708;2024-01-30T09:06:56;102536.31;;;12.71;100.00
19831;BME280;10076;52.008;4.708;2024-01-30T09:09:22;102543.47;;;12.69;100.00
19831;BME280;10076;52.008;4.708;2024-01-30T09:11:47;102546.22;;;12.67;100.00
19831;BME280;10076;52.008;4.708;2024-01-30T09:14:12;102544.69;;;12.79;100.00
19831;BME280;10076;52.008;4.708;2024-01-30T09:16:38;102555.78;;;12.70;100.00
19831;BME280;10076;52.008;4.708;2024-01-30T09:19:04;102548.44;;;12.75;100.00
19831;BME280;10076;52.008;4.708;2024-01-30T09:21:29;102558.13;;;12.76;100.00
19831;BME280;10076;52.008;4.708;2024-01-30T09:23:54;102559.53;;;12.66;100.00
19831;BME280;10076;52.008;4.708;2024-01-30T09:26:20;102559.69;;;12.63;100.00
19831;BME280;10076;52.008;4.708;2024-01-30T09:28:45;102563.59;;;12.56;100.00
19831;BME280;10076;52.008;4.708;2024-01-30T09:31:12;102558.28;;;12.56;100.00
19831;BME280;10076;52.008;4.708;2024-01-30T09:33:38;102567.78;;;12.43;100.00
19831;BME280;10076;52.008;4.708;2024-01-30T09:36:04;102574.50;;;12.50;100.00
19831;BME280;10076;52.008;4.708;2024-01-30T09:38:30;102569.59;;;12.59;100.00
19831;BME280;10076;52.008;4.708;2024-01-30T09:40:55;102578.22;;;12.80;100.00
19831;BME280;10076;52.008;4.708;2024-01-30T09:43:23;102572.00;;;12.81;100.00
19831;BME280;10076;52.008;4.708;2024-01-30T09:45:50;102571.09;;;12.65;100.00
19831;BME280;10076;52.008;4.708;2024-01-30T09:48:16;102577.00;;;12.70;100.00
19831;BME280;10076;52.008;4.708;2024-01-30T09:50:41;102589.34;;;12.88;100.00
19831;BME280;10076;52.008;4.708;2024-01-30T09:53:08;102588.97;;;12.77;100.00
19831;BME280;10076;52.008;4.708;2024-01-30T09:55:35;102608.81;;;12.70;100.00
19831;BME280;10076;52.008;4.708;2024-01-30T09:58:01;102613.50;;;12.65;100.00
19831;BME280;10076;52.008;4.708;2024-01-30T10:00:26;102594.84;;;12.66;100.00
19831;BME280;10076;52.008;4.708;2024-01-30T10:02:52;102578.47;;;12.58;100.00
19831;BME280;10076;52.008;4.708;2024-01-30T10:05:19;102603.97;;;12.61;100.00
19831;BME280;10076;52.008;4.708;2024-01-30T10:07:53;102590.78;;;12.42;100.00
19831;BME280;10076;52.008;4.708;2024-01-30T10:10:18;102611.16;;;12.59;100.00
19831;BME280;10076;52.008;4.708;2024-01-30T10:12:44;102603.50;;;12.53;100.00
19831;BME280;10076;52.008;4.708;2024-01-30T10:15:09;102598.53;;;12.64;100.00
19831;BME280;10076;52.008;4.708;2024-01-30T10:17:37;102612.53;;;12.49;100.00
19831;BME280;10076;52.008;4.708;2024-01-30T10:20:04;102611.28;;;12.39;100.00
19831;BME280;10076;52.008;4.708;2024-01-30T10:22:30;102605.50;;;12.48;100.00
19831;BME280;10076;52.008;4.708;2024-01-30T10:24:55;102611.28;;;12.56;100.00
19831;BME280;10076;52.008;4.708;2024-01-30T10:27:26;102605.69;;;12.45;100.00
19831;BME280;10076;52.008;4.708;2024-01-30T10:29:52;102610.75;;;12.49;100.00
19831;BME280;10076;52.008;4.708;2024-01-30T10:32:17;102623.50;;;12.25;100.00
19831;BME280;10076;52.008;4.708;2024-01-30T10:34:42;102637.88;;;12.19;100.00
19831;BME280;10076;52.008;4.708;2024-01-30T10:37:09;102632.75;;;12.16;100.00
19831;BME280;10076;52.008;4.708;2024-01-30T10:39:41;102641.38;;;12.03;100.00
19831;BME280;10076;52.008;4.708;2024-01-30T10:42:11;102635.06;;;12.05;100.00
19831;BME280;10076;52.008;4.708;2024-01-30T10:44:46;102640.19;;;12.08;100.00
19831;BME280;10076;52.008;4.708;2024-01-30T10:47:17;102656.75;;;11.95;100.00
19831;BME280;10076;52.008;4.708;2024-01-30T10:49:43;102639.97;;;11.77;100.00
19831;BME280;10076;52.008;4.708;2024-01-30T10:52:12;102646.09;;;11.60;100.00
19831;BME280;10076;52.008;4.708;2024-01-30T10:54:40;102648.19;;;11.72;100.00
19831;BME280;10076;52.008;4.708;2024-01-30T10:57:05;102642.97;;;11.50;100.00
19831;BME280;10076;52.008;4.708;2024-01-30T10:59:32;102645.31;;;11.58;100.00
19831;BME280;10076;52.008;4.708;2024-01-30T11:01:58;102652.59;;;11.53;100.00
19831;BME280;10076;52.008;4.708;2024-01-30T11:04:24;102646.53;;;11.31;100.00
19831;BME280;10076;52.008;4.708;2024-01-30T11:06:50;102668.72;;;11.47;100.00
19831;BME280;10076;52.008;4.708;2024-01-30T11:09:17;102658.75;;;11.33;100.00
19831;BME280;10076;52.008;4.708;2024-01-30T11:11:55;102656.59;;;11.23;100.00
19831;BME280;10076;52.008;4.708;2024-01-30T11:14:25;102641.88;;;11.17;100.00
19831;BME280;10076;52.008;4.708;2024-01-30T11:16:51;102671.00;;;11.16;100.00
19831;BME280;10076;52.008;4.708;2024-01-30T11:19:22;102655.28;;;11.13;100.00
19831;BME280;10076;52.008;4.708;2024-01-30T11:21:50;102654.41;;;11.12;100.00
19831;BME280;10076;52.008;4.708;2024-01-30T11:24:22;102679.97;;;10.92;100.00
19831;BME280;10076;52.008;4.708;2024-01-30T11:26:57;102671.47;;;10.86;100.00
19831;BME280;10076;52.008;4.708;2024-01-30T11:29:29;102667.44;;;10.77;100.00
19831;BME280;10076;52.008;4.708;2024-01-30T11:31:55;102676.28;;;10.76;100.00
19831;BME280;10076;52.008;4.708;2024-01-30T11:34:21;102676.81;;;10.84;100.00
19831;BME280;10076;52.008;4.708;2024-01-30T11:36:58;102686.38;;;10.67;100.00
19831;BME280;10076;52.008;4.708;2024-01-30T11:39:29;102670.00;;;10.79;100.00
19831;BME280;10076;52.008;4.708;2024-01-30T11:41:55;102673.53;;;10.79;100.00
19831;BME280;10076;52.008;4.708;2024-01-30T11:44:21;102663.59;;;10.64;100.00
19831;BME280;10076;52.008;4.708;2024-01-30T11:46:53;102681.16;;;10.65;100.00
19831;BME280;10076;52.008;4.708;2024-01-30T11:49:18;102677.28;;;10.74;100.00
19831;BME280;10076;52.008;4.708;2024-01-30T11:51:46;102673.25;;;10.44;100.00
19831;BME280;10076;52.008;4.708;2024-01-30T11:54:14;102662.31;;;10.53;100.00
19831;BME280;10076;52.008;4.708;2024-01-30T11:56:40;102657.38;;;10.65;100.00
19831;BME280;10076;52.008;4.708;2024-01-30T11:59:05;102671.50;;;10.44;100.00
19831;BME280;10076;52.008;4.708;2024-01-30T12:01:31;102664.22;;;10.49;100.00
19831;BME280;10076;52.008;4.708;2024-01-30T12:03:59;102681.84;;;10.49;100.00
19831;BME280;10076;52.008;4.708;2024-01-30T12:06:24;102669.44;;;10.51;100.00
19831;BME280;10076;52.008;4.708;2024-01-30T12:09:01;102675.84;;;10.45;100.00
19831;BME280;10076;52.008;4.708;2024-01-30T12:11:28;102677.78;;;10.62;100.00
19831;BME280;10076;52.008;4.708;2024-01-30T12:13:55;102682.88;;;10.66;100.00
19831;BME280;10076;52.008;4.708;2024-01-30T12:16:21;102678.31;;;10.90;100.00
19831;BME280;10076;52.008;4.708;2024-01-30T12:18:47;102678.41;;;10.68;100.00
19831;BME280;10076;52.008;4.708;2024-01-30T12:21:12;102681.56;;;10.76;100.00
19831;BME280;10076;52.008;4.708;2024-01-30T12:23:41;102684.38;;;10.72;100.00
19831;BME280;10076;52.008;4.708;2024-01-30T12:26:06;102694.91;;;10.73;100.00
19831;BME280;10076;52.008;4.708;2024-01-30T12:28:33;102702.44;;;10.62;100.00
19831;BME280;10076;52.008;4.708;2024-01-30T12:31:02;102711.69;;;10.51;100.00
19831;BME280;10076;52.008;4.708;2024-01-30T12:33:28;102701.47;;;10.63;100.00